Time;durP1;ratioP1;P1;durP2;ratioP2;P2;SDS_P1;SDS_P2;PMS_P1;PMS_P2;Temp;Humidity;BMP_temperature;BMP_pressure;BME280_temperature;BME280_humidity;BME280_pressure;Samples;Min_cycle;Max_cycle;Signal;HPM_P1;HPM_P2
2023/10/04 00:00:49;;;;;;;13.02;2.92;;;13.50;99.90;;;;;;5068053;28;20424;-66
2023/10/04 00:03:15;;;;;;;12.63;2.47;;;13.50;99.90;;;;;;5070833;28;20045;-66
2023/10/04 00:05:41;;;;;;;9.90;2.90;;;13.50;99.90;;;;;;5069650;28;20056;-66
2023/10/04 00:08:07;;;;;;;12.73;3.10;;;13.50;99.90;;;;;;5053764;28;20036;-66
2023/10/04 00:10:34;;;;;;;11.50;3.50;;;13.50;99.90;;;;;;5053783;28;20051;-66
2023/10/04 00:12:59;;;;;;;10.70;2.70;;;13.50;99.90;;;;;;5068147;28;20073;-66
2023/10/04 00:15:27;;;;;;;10.60;2.75;;;13.50;99.90;;;;;;5058128;28;20115;-66
2023/10/04 00:17:53;;;;;;;7.07;2.70;;;13.50;99.90;;;;;;5068992;28;20044;-66
2023/10/04 00:20:20;;;;;;;9.82;2.95;;;13.50;99.90;;;;;;5073356;28;20045;-66
2023/10/04 00:22:47;;;;;;;10.02;2.72;;;13.50;99.90;;;;;;5075518;28;20107;-67
2023/10/04 00:25:20;;;;;;;12.90;2.92;;;13.60;99.90;;;;;;5074455;28;20063;-67
2023/10/04 00:27:56;;;;;;;8.20;2.78;;;13.60;99.90;;;;;;5047776;28;20497;-67
2023/10/04 00:30:28;;;;;;;10.90;2.50;;;13.60;99.90;;;;;;5054190;28;20045;-67
2023/10/04 00:32:54;;;;;;;11.55;2.83;;;13.60;99.90;;;;;;5055491;28;20077;-67
2023/10/04 00:35:21;;;;;;;9.18;2.63;;;13.60;99.90;;;;;;5053295;28;20095;-66
2023/10/04 00:37:55;;;;;;;11.13;3.00;;;13.60;99.90;;;;;;5053874;28;20130;-67
2023/10/04 00:40:32;;;;;;;13.20;3.05;;;13.60;99.90;;;;;;5055348;28;20479;-67
2023/10/04 00:43:01;;;;;;;8.25;3.05;;;13.60;99.90;;;;;;5054073;28;20037;-67
2023/10/04 00:45:28;;;;;;;9.50;2.58;;;13.60;99.90;;;;;;5053771;28;20057;-67
2023/10/04 00:47:58;;;;;;;8.35;2.65;;;13.60;99.90;;;;;;5054416;28;20094;-67
2023/10/04 00:50:26;;;;;;;10.05;2.50;;;13.60;99.90;;;;;;5053213;28;20059;-67
2023/10/04 00:52:57;;;;;;;10.73;2.72;;;13.50;99.90;;;;;;5053726;28;20044;-67
2023/10/04 00:55:24;;;;;;;9.10;2.85;;;13.60;99.90;;;;;;5068202;28;20393;-67
2023/10/04 00:57:54;;;;;;;9.73;2.78;;;13.50;99.90;;;;;;5066767;28;20064;-67
2023/10/04 01:00:21;;;;;;;9.27;2.40;;;13.50;99.90;;;;;;5054764;28;20406;-67
2023/10/04 01:02:47;;;;;;;10.45;3.30;;;13.50;99.90;;;;;;5053934;28;20039;-67
2023/10/04 01:05:16;;;;;;;10.07;2.28;;;13.50;99.90;;;;;;5053587;28;20442;-67
2023/10/04 01:07:42;;;;;;;9.93;3.30;;;13.50;99.90;;;;;;5053327;28;20139;-67
2023/10/04 01:10:20;;;;;;;7.88;2.63;;;13.50;99.90;;;;;;5053911;28;20037;-67
2023/10/04 01:12:46;;;;;;;12.52;3.20;;;13.50;99.90;;;;;;5053100;28;20146;-66
2023/10/04 01:15:36;;;;;;;11.38;3.95;;;13.50;99.90;;;;;;5062911;28;20071;-66
2023/10/04 01:18:04;;;;;;;13.32;2.70;;;13.50;99.90;;;;;;5072998;28;20040;-66
2023/10/04 01:20:30;;;;;;;11.10;2.75;;;13.50;99.90;;;;;;5074015;28;20073;-67
2023/10/04 01:23:01;;;;;;;12.63;3.65;;;13.50;99.90;;;;;;5072255;28;20397;-66
2023/10/04 01:25:28;;;;;;;13.07;2.83;;;13.50;99.90;;;;;;5072496;28;20048;-66
2023/10/04 01:27:54;;;;;;;10.60;2.58;;;13.50;99.90;;;;;;5073106;28;20520;-66
2023/10/04 01:30:20;;;;;;;10.73;3.67;;;13.50;99.90;;;;;;5070641;28;20072;-66
2023/10/04 01:32:50;;;;;;;18.52;4.07;;;13.60;99.90;;;;;;5072909;28;20389;-66
2023/10/04 01:35:23;;;;;;;9.30;2.90;;;13.60;99.90;;;;;;5072612;28;20043;-67
2023/10/04 01:37:52;;;;;;;10.98;3.58;;;13.60;99.90;;;;;;5072181;28;20072;-67
2023/10/04 01:40:19;;;;;;;14.70;2.70;;;13.50;99.90;;;;;;5073913;28;20040;-67
2023/10/04 01:42:45;;;;;;;14.82;3.40;;;13.50;99.90;;;;;;5072550;28;20070;-66
2023/10/04 01:45:15;;;;;;;12.15;3.90;;;13.50;99.90;;;;;;5040843;28;20490;-67
2023/10/04 01:47:41;;;;;;;10.80;3.70;;;13.40;99.90;;;;;;5054002;28;20385;-67
2023/10/04 01:50:09;;;;;;;13.98;3.20;;;13.40;99.90;;;;;;5052304;28;20052;-67
2023/10/04 01:52:36;;;;;;;11.48;3.65;;;13.30;99.90;;;;;;5051582;28;20398;-67
2023/10/04 01:55:05;;;;;;;14.25;3.00;;;13.30;99.90;;;;;;5052908;28;20063;-67
2023/10/04 01:57:33;;;;;;;14.00;3.63;;;13.30;99.90;;;;;;5035620;28;20137;-66
2023/10/04 01:59:58;;;;;;;9.88;2.83;;;13.30;99.90;;;;;;5063301;28;20033;-66
2023/10/04 02:02:24;;;;;;;9.75;3.00;;;13.20;99.90;;;;;;5049231;28;20040;-66
2023/10/04 02:04:53;;;;;;;13.38;4.00;;;13.20;99.90;;;;;;5032750;28;20041;-66
2023/10/04 02:07:23;;;;;;;12.63;3.38;;;13.20;99.90;;;;;;5083322;28;20048;-67
2023/10/04 02:09:51;;;;;;;10.77;2.78;;;13.20;99.90;;;;;;5072100;28;20082;-67
2023/10/04 02:12:18;;;;;;;8.23;2.78;;;13.20;99.90;;;;;;5056546;28;20429;-66
2023/10/04 02:14:48;;;;;;;15.88;3.90;;;13.20;99.90;;;;;;5052053;28;20040;-66
2023/10/04 02:17:17;;;;;;;11.10;3.78;;;13.20;99.90;;;;;;5053385;28;20044;-66
2023/10/04 02:19:43;;;;;;;9.48;3.13;;;13.20;99.90;;;;;;5034569;28;20540;-67
2023/10/04 02:22:10;;;;;;;11.27;3.17;;;13.20;99.90;;;;;;5053874;28;20103;-67
2023/10/04 02:24:39;;;;;;;6.60;2.50;;;13.20;99.90;;;;;;5052009;28;20519;-66
2023/10/04 02:27:09;;;;;;;7.68;2.63;;;13.30;99.90;;;;;;5051427;28;20048;-66
2023/10/04 02:29:38;;;;;;;11.77;2.60;;;13.40;99.90;;;;;;5053006;28;20067;-66
2023/10/04 02:32:09;;;;;;;13.43;3.13;;;13.40;99.90;;;;;;5052701;28;20049;-67
2023/10/04 02:34:41;;;;;;;12.38;2.90;;;13.50;99.90;;;;;;5054623;28;20140;-67
2023/10/04 02:37:07;;;;;;;9.82;2.75;;;13.60;99.90;;;;;;5050765;28;20045;-66
2023/10/04 02:39:39;;;;;;;10.65;2.95;;;13.60;99.90;;;;;;5051395;28;20040;-66
2023/10/04 02:42:11;;;;;;;13.00;3.75;;;13.60;99.90;;;;;;5056505;28;20043;-66
2023/10/04 02:44:37;;;;;;;11.05;3.40;;;13.60;99.90;;;;;;5054244;28;20051;-67
2023/10/04 02:47:06;;;;;;;15.50;3.20;;;13.70;99.90;;;;;;5052224;28;20033;-67
2023/10/04 02:49:38;;;;;;;8.95;2.80;;;13.60;99.90;;;;;;5052578;28;20101;-66
2023/10/04 02:52:11;;;;;;;8.30;2.88;;;13.60;99.90;;;;;;5052641;28;20494;-66
2023/10/04 02:54:38;;;;;;;7.93;2.63;;;13.60;99.90;;;;;;5051852;28;20036;-66
2023/10/04 02:57:05;;;;;;;10.43;2.80;;;13.60;99.90;;;;;;5051632;28;20045;-66
2023/10/04 02:59:32;;;;;;;10.50;3.25;;;13.60;99.90;;;;;;5050922;28;20115;-66
2023/10/04 03:01:58;;;;;;;8.95;2.70;;;13.60;99.90;;;;;;5051938;28;20045;-66
2023/10/04 03:04:24;;;;;;;8.88;2.83;;;13.50;99.90;;;;;;5052449;28;20112;-66
2023/10/04 03:06:51;;;;;;;10.20;2.60;;;13.60;99.90;;;;;;5051159;28;20116;-66
2023/10/04 03:09:17;;;;;;;9.52;2.20;;;13.60;99.90;;;;;;5051885;28;20547;-66
2023/10/04 03:11:43;;;;;;;13.52;3.35;;;13.70;99.90;;;;;;5051043;28;20075;-66
2023/10/04 03:14:11;;;;;;;9.70;2.90;;;13.70;99.90;;;;;;5051069;28;20041;-66
2023/10/04 03:16:40;;;;;;;7.75;2.75;;;13.70;99.90;;;;;;5050001;28;20049;-66
2023/10/04 03:19:06;;;;;;;10.77;2.65;;;13.70;99.90;;;;;;5035002;28;20131;-66
2023/10/04 03:21:33;;;;;;;8.85;2.88;;;13.60;99.90;;;;;;5067495;28;20124;-66
2023/10/04 03:23:58;;;;;;;7.30;2.65;;;13.60;99.90;;;;;;5051434;28;20041;-66
2023/10/04 03:26:24;;;;;;;11.73;3.40;;;13.60;99.90;;;;;;5052126;28;20044;-67
2023/10/04 03:28:50;;;;;;;10.10;2.63;;;13.50;99.90;;;;;;5050892;28;20053;-66
2023/10/04 03:31:18;;;;;;;11.90;2.85;;;13.50;99.90;;;;;;5049910;28;20502;-66
2023/10/04 03:33:45;;;;;;;12.52;3.78;;;13.40;99.90;;;;;;5051026;28;20052;-66
2023/10/04 03:36:15;;;;;;;11.93;3.47;;;13.40;99.90;;;;;;5037491;28;20045;-66
2023/10/04 03:38:43;;;;;;;10.63;2.85;;;13.40;99.90;;;;;;5033947;28;20045;-66
2023/10/04 03:41:09;;;;;;;13.07;3.35;;;13.30;99.90;;;;;;5050508;28;20075;-66
2023/10/04 03:43:35;;;;;;;10.88;3.05;;;13.30;99.90;;;;;;5050973;28;20041;-66
2023/10/04 03:46:16;;;;;;;9.52;3.40;;;13.30;99.90;;;;;;5052168;28;20117;-66
2023/10/04 03:48:43;;;;;;;10.55;3.33;;;13.30;99.90;;;;;;5050779;28;20076;-66
2023/10/04 03:51:09;;;;;;;11.70;3.22;;;13.30;99.90;;;;;;5037229;28;20060;-66
2023/10/04 03:53:36;;;;;;;11.77;2.67;;;13.30;99.90;;;;;;5050596;28;20044;-66
2023/10/04 03:56:04;;;;;;;8.00;2.33;;;13.30;99.90;;;;;;5050786;28;20045;-66
2023/10/04 03:58:31;;;;;;;10.57;3.78;;;13.30;99.90;;;;;;5049319;28;20044;-66
2023/10/04 04:00:57;;;;;;;9.85;3.05;;;13.30;99.90;;;;;;5050612;28;20478;-66
2023/10/04 04:03:22;;;;;;;17.95;4.30;;;13.40;99.90;;;;;;5050658;28;20128;-66
2023/10/04 04:05:50;;;;;;;12.80;4.07;;;13.40;99.90;;;;;;5066396;28;20037;-66
2023/10/04 04:08:16;;;;;;;11.38;3.10;;;13.40;99.90;;;;;;5054143;28;20055;-66
2023/10/04 04:10:42;;;;;;;12.35;3.13;;;13.40;99.90;;;;;;5065413;28;20119;-66
2023/10/04 04:13:09;;;;;;;7.53;3.03;;;13.40;99.90;;;;;;5049581;28;20053;-66
2023/10/04 04:15:35;;;;;;;12.73;3.72;;;13.40;99.90;;;;;;5050680;28;20448;-66
2023/10/04 04:18:16;;;;;;;7.93;3.20;;;13.40;99.90;;;;;;5037780;28;20036;-66
2023/10/04 04:20:41;;;;;;;12.73;3.38;;;13.40;99.90;;;;;;5052804;28;20076;-66
2023/10/04 04:23:12;;;;;;;19.05;3.47;;;13.50;99.90;;;;;;5071111;28;20068;-66
2023/10/04 04:25:38;;;;;;;10.77;3.03;;;13.40;99.90;;;;;;5069374;28;20086;-66
2023/10/04 04:28:04;;;;;;;11.60;3.30;;;13.40;99.90;;;;;;5071900;28;20029;-66
2023/10/04 04:30:35;;;;;;;11.20;3.72;;;13.40;99.90;;;;;;5069875;28;20090;-66
2023/10/04 04:33:07;;;;;;;10.20;2.75;;;13.40;99.90;;;;;;5053091;28;20050;-66
2023/10/04 04:38:25;;;;;;;11.63;3.45;;;13.30;99.90;;;;;;5071678;28;20045;-66
2023/10/04 04:40:54;;;;;;;10.52;3.38;;;13.30;99.90;;;;;;5069298;28;20037;-66
2023/10/04 04:45:51;;;;;;;11.30;3.30;;;13.30;99.90;;;;;;5067722;28;20063;-66
2023/10/04 04:48:28;;;;;;;15.95;3.53;;;13.30;99.90;;;;;;5050492;28;20079;-66
2023/10/04 04:51:12;;;;;;;11.77;2.78;;;13.20;99.90;;;;;;5057209;28;20139;-66
2023/10/04 04:53:39;;;;;;;12.82;2.75;;;13.30;99.90;;;;;;5030638;28;20045;-66
2023/10/04 04:56:12;;;;;;;10.73;3.17;;;13.30;99.90;;;;;;5030378;28;20113;-66
2023/10/04 04:58:38;;;;;;;17.35;4.07;;;13.30;99.90;;;;;;5031035;28;20049;-67
2023/10/04 05:01:08;;;;;;;10.88;3.33;;;13.30;99.90;;;;;;5033828;28;20041;-67
2023/10/04 05:03:34;;;;;;;9.50;3.13;;;13.30;99.90;;;;;;5072163;28;20491;-66
2023/10/04 05:06:00;;;;;;;14.07;3.33;;;13.30;99.90;;;;;;5053697;28;20563;-66
2023/10/04 05:08:26;;;;;;;8.15;2.33;;;13.30;99.90;;;;;;5052818;28;20132;-66
2023/10/04 05:10:55;;;;;;;12.18;3.22;;;13.30;99.90;;;;;;5054379;28;20441;-67
2023/10/04 05:13:21;;;;;;;8.63;3.42;;;13.30;99.90;;;;;;5086888;28;20175;-67
2023/10/04 05:15:49;;;;;;;9.23;2.90;;;13.30;99.90;;;;;;5052508;28;20133;-66
2023/10/04 05:18:17;;;;;;;13.50;3.50;;;13.30;99.90;;;;;;5056619;28;20322;-66
2023/10/04 05:20:45;;;;;;;10.10;2.85;;;13.20;99.90;;;;;;5072832;28;20044;-66
2023/10/04 05:23:11;;;;;;;13.35;3.30;;;13.20;99.90;;;;;;5071579;28;20481;-66
2023/10/04 05:25:37;;;;;;;9.98;2.58;;;13.20;99.90;;;;;;5069338;28;20063;-66
2023/10/04 05:28:09;;;;;;;11.98;2.50;;;13.10;99.90;;;;;;5073613;28;20098;-66
2023/10/04 05:30:38;;;;;;;10.65;2.40;;;13.10;99.90;;;;;;5072205;28;20082;-66
2023/10/04 05:33:08;;;;;;;9.90;3.58;;;13.00;99.90;;;;;;5073277;28;20055;-66
2023/10/04 05:35:37;;;;;;;9.15;3.08;;;12.90;99.90;;;;;;5072729;28;20036;-66
2023/10/04 05:38:04;;;;;;;9.52;3.25;;;12.80;99.90;;;;;;5073043;28;20119;-66
2023/10/04 05:40:38;;;;;;;10.15;3.35;;;12.80;99.90;;;;;;5072093;28;20040;-66
2023/10/04 05:43:05;;;;;;;11.80;2.88;;;12.70;99.90;;;;;;5057700;28;20043;-66
2023/10/04 05:45:31;;;;;;;8.73;2.90;;;12.60;99.90;;;;;;5055069;28;20040;-67
2023/10/04 05:47:59;;;;;;;7.63;2.97;;;12.60;99.90;;;;;;5073218;28;20041;-67
2023/10/04 05:50:25;;;;;;;9.90;2.80;;;12.50;99.90;;;;;;5072956;28;20177;-67
2023/10/04 05:52:53;;;;;;;11.50;3.70;;;12.50;99.90;;;;;;5072842;28;20443;-67
2023/10/04 05:55:20;;;;;;;10.77;3.65;;;12.50;99.90;;;;;;5061108;28;20037;-67
2023/10/04 05:57:47;;;;;;;9.18;3.17;;;12.50;99.90;;;;;;5053069;28;20048;-67
2023/10/04 06:00:33;;;;;;;11.05;3.25;;;12.40;99.90;;;;;;5055474;28;20138;-66
2023/10/04 06:03:01;;;;;;;7.30;3.00;;;12.40;99.90;;;;;;5072733;28;20393;-66
2023/10/04 06:05:27;;;;;;;11.27;3.80;;;12.40;99.90;;;;;;5032969;28;20681;-66
2023/10/04 06:07:54;;;;;;;11.27;3.47;;;12.30;99.90;;;;;;5033928;28;20051;-66
2023/10/04 06:10:21;;;;;;;14.60;3.75;;;12.30;99.90;;;;;;5048917;28;20511;-67
2023/10/04 06:12:47;;;;;;;9.35;2.97;;;12.40;99.90;;;;;;5071487;28;20059;-67
2023/10/04 06:15:16;;;;;;;12.25;3.45;;;12.20;99.90;;;;;;5060556;28;20481;-66
2023/10/04 06:17:48;;;;;;;8.50;3.53;;;12.30;99.90;;;;;;5051893;28;20049;-67
2023/10/04 06:20:28;;;;;;;9.45;3.42;;;12.20;99.90;;;;;;5053581;28;20178;-67
2023/10/04 06:23:09;;;;;;;11.93;3.55;;;12.30;99.90;;;;;;5047834;28;20036;-67
2023/10/04 06:25:53;;;;;;;9.07;3.47;;;12.30;99.90;;;;;;5071577;28;20086;-67
2023/10/04 06:28:19;;;;;;;10.73;3.10;;;12.30;99.90;;;;;;5055298;28;20090;-66
2023/10/04 06:30:48;;;;;;;12.50;3.40;;;12.30;99.90;;;;;;5061407;28;20049;-67
2023/10/04 06:33:15;;;;;;;10.10;3.22;;;12.30;99.90;;;;;;5051077;28;20045;-67
2023/10/04 06:35:43;;;;;;;13.80;3.47;;;12.30;99.90;;;;;;5051812;28;20145;-66
2023/10/04 06:38:10;;;;;;;12.57;4.03;;;12.30;99.90;;;;;;5051694;28;20045;-66
2023/10/04 06:40:37;;;;;;;9.70;3.70;;;12.40;99.90;;;;;;5050838;28;20525;-67
2023/10/04 06:43:08;;;;;;;10.95;3.13;;;12.40;99.90;;;;;;5053309;28;20040;-67
2023/10/04 06:45:35;;;;;;;14.25;4.72;;;12.40;99.90;;;;;;5051014;28;20040;-66
2023/10/04 06:48:03;;;;;;;17.58;3.90;;;12.40;99.90;;;;;;5051132;28;20049;-66
2023/10/04 06:50:32;;;;;;;12.32;3.95;;;12.50;99.90;;;;;;5050963;28;20522;-66
2023/10/04 06:53:01;;;;;;;17.13;4.18;;;12.50;99.90;;;;;;5038000;28;20041;-67
2023/10/04 06:55:27;;;;;;;14.18;3.90;;;12.60;99.90;;;;;;5059336;28;20461;-66
2023/10/04 06:57:53;;;;;;;9.85;3.50;;;12.60;99.90;;;;;;5069825;28;20440;-66
2023/10/04 07:00:21;;;;;;;10.88;3.88;;;12.70;99.90;;;;;;5069251;28;20041;-66
2023/10/04 07:02:49;;;;;;;9.80;3.63;;;12.60;99.90;;;;;;5053719;28;20032;-67
2023/10/04 07:05:19;;;;;;;13.82;3.72;;;12.70;99.90;;;;;;5066436;28;20458;-67
2023/10/04 07:07:46;;;;;;;15.30;3.95;;;12.80;99.90;;;;;;5042063;28;20047;-66
2023/10/04 07:10:16;;;;;;;11.30;4.43;;;12.90;99.90;;;;;;5067767;28;20056;-67
2023/10/04 07:12:43;;;;;;;10.75;3.50;;;12.90;99.90;;;;;;5066333;28;20382;-67
2023/10/04 07:15:10;;;;;;;14.68;3.92;;;12.90;99.90;;;;;;5048068;28;20106;-68
2023/10/04 07:17:39;;;;;;;13.27;4.55;;;13.00;99.90;;;;;;5048326;28;20048;-69
2023/10/04 07:20:16;;;;;;;11.25;4.13;;;13.10;99.90;;;;;;5049094;28;20387;-64
2023/10/04 07:22:43;;;;;;;16.27;5.18;;;13.20;99.90;;;;;;5030785;28;20039;-63
2023/10/04 07:25:12;;;;;;;11.57;3.53;;;13.30;99.90;;;;;;5048931;28;20049;-66
2023/10/04 07:27:42;;;;;;;11.45;3.67;;;13.30;99.90;;;;;;5048970;28;20466;-63
2023/10/04 07:30:12;;;;;;;11.00;4.30;;;13.40;99.90;;;;;;5047804;28;20098;-64
2023/10/04 07:32:42;;;;;;;15.18;4.35;;;13.50;99.90;;;;;;5048745;28;20132;-64
2023/10/04 07:35:25;;;;;;;12.48;3.97;;;13.60;99.90;;;;;;5039262;28;20044;-63
2023/10/04 07:37:55;;;;;;;12.50;4.05;;;13.60;99.90;;;;;;5048642;28;20045;-63
2023/10/04 07:40:23;;;;;;;13.00;3.88;;;13.70;99.90;;;;;;5048496;28;20045;-63
2023/10/04 07:42:53;;;;;;;11.40;3.20;;;13.80;99.90;;;;;;5011114;28;20045;-63
2023/10/04 07:45:25;;;;;;;13.10;3.90;;;13.90;99.90;;;;;;5011959;28;20521;-63
2023/10/04 07:47:51;;;;;;;13.93;4.65;;;14.00;99.90;;;;;;5028568;28;20088;-63
2023/10/04 07:50:22;;;;;;;9.73;3.45;;;14.00;99.90;;;;;;5028642;28;20084;-63
2023/10/04 07:52:50;;;;;;;11.75;3.30;;;14.10;99.90;;;;;;5036086;28;20060;-64
2023/10/04 07:55:19;;;;;;;15.32;4.63;;;14.20;99.90;;;;;;5061153;28;20064;-64
2023/10/04 07:57:50;;;;;;;13.00;4.30;;;14.30;99.90;;;;;;5048800;28;20045;-64
2023/10/04 08:00:17;;;;;;;13.75;4.18;;;14.30;99.90;;;;;;5047863;28;20040;-64
2023/10/04 08:02:49;;;;;;;12.07;4.40;;;14.40;99.90;;;;;;5047630;28;20040;-66
2023/10/04 08:05:20;;;;;;;11.98;4.20;;;14.50;99.90;;;;;;5030455;28;20095;-65
2023/10/04 08:07:50;;;;;;;14.82;4.85;;;14.50;99.90;;;;;;5047986;28;20121;-71
2023/10/04 08:10:17;;;;;;;12.57;3.95;;;14.60;99.90;;;;;;5048492;28;20045;-69
2023/10/04 08:12:43;;;;;;;12.18;4.70;;;14.70;99.90;;;;;;5047198;28;20817;-67
2023/10/04 08:15:13;;;;;;;12.85;4.18;;;14.70;99.90;;;;;;5031415;28;20045;-67
2023/10/04 08:17:43;;;;;;;14.50;3.75;;;14.80;99.90;;;;;;5046792;28;20517;-70
2023/10/04 08:20:12;;;;;;;9.70;3.67;;;14.90;99.90;;;;;;5051233;28;20071;-70
2023/10/04 08:22:40;;;;;;;10.05;4.22;;;15.00;99.90;;;;;;5052024;28;20037;-63
2023/10/04 08:25:06;;;;;;;9.25;3.83;;;15.10;99.90;;;;;;5051246;28;20444;-63
2023/10/04 08:27:34;;;;;;;12.63;4.18;;;15.10;99.90;;;;;;5056560;28;20033;-74
2023/10/04 08:30:03;;;;;;;19.50;5.43;;;15.20;99.90;;;;;;5053965;28;20127;-67
2023/10/04 08:32:29;;;;;;;18.67;4.38;;;15.20;99.90;;;;;;5052947;28;20082;-64
2023/10/04 08:34:55;;;;;;;13.88;4.88;;;15.40;99.90;;;;;;5065410;28;20068;-64
2023/10/04 08:37:21;;;;;;;19.35;4.38;;;15.40;99.90;;;;;;5057476;28;20485;-64
2023/10/04 08:39:48;;;;;;;11.48;4.05;;;15.40;99.90;;;;;;5074534;28;20425;-68
2023/10/04 08:42:13;;;;;;;17.27;3.85;;;15.50;99.90;;;;;;5063481;28;20094;-61
2023/10/04 08:44:39;;;;;;;11.85;4.70;;;15.60;99.90;;;;;;5060712;28;20044;-60
2023/10/04 08:47:08;;;;;;;12.57;4.10;;;15.60;99.90;;;;;;5053557;28;20092;-61
2023/10/04 08:49:55;;;;;;;12.57;4.72;;;15.60;99.90;;;;;;5054685;28;20084;-60
2023/10/04 08:52:32;;;;;;;11.05;4.68;;;15.60;99.90;;;;;;5053925;28;20056;-61
2023/10/04 08:55:16;;;;;;;12.77;3.63;;;15.60;99.90;;;;;;5054376;28;20131;-61
2023/10/04 08:57:42;;;;;;;8.63;3.15;;;15.70;99.90;;;;;;5053746;28;20118;-61
2023/10/04 09:00:13;;;;;;;10.05;4.07;;;15.70;99.90;;;;;;5052989;28;20045;-59
2023/10/04 09:02:44;;;;;;;9.07;3.60;;;15.80;99.90;;;;;;5053468;28;20553;-61
2023/10/04 09:05:16;;;;;;;12.10;5.20;;;15.80;99.90;;;;;;5054881;28;20072;-61
2023/10/04 09:07:45;;;;;;;16.23;4.22;;;15.90;99.90;;;;;;5054055;28;20099;-60
2023/10/04 09:10:16;;;;;;;10.95;3.40;;;16.00;99.90;;;;;;5053693;28;20371;-61
2023/10/04 09:12:47;;;;;;;10.90;4.22;;;16.10;99.90;;;;;;5053091;28;20051;-61
2023/10/04 09:15:14;;;;;;;11.57;3.63;;;16.20;99.90;;;;;;5052693;28;20048;-61
2023/10/04 09:17:55;;;;;;;9.60;3.88;;;16.10;99.90;;;;;;5053274;28;20056;-60
2023/10/04 09:20:27;;;;;;;9.20;4.25;;;16.10;99.90;;;;;;5053275;28;20045;-61
2023/10/04 09:22:54;;;;;;;13.52;3.85;;;16.10;99.90;;;;;;5052533;28;20033;-60
2023/10/04 09:25:20;;;;;;;10.70;3.75;;;16.10;99.90;;;;;;5052993;28;20171;-60
2023/10/04 09:27:55;;;;;;;11.15;4.45;;;16.10;99.90;;;;;;5053702;28;20367;-59
2023/10/04 09:30:24;;;;;;;12.02;3.95;;;16.20;99.90;;;;;;5054386;28;20049;-62
2023/10/04 09:32:54;;;;;;;9.43;4.13;;;16.20;99.90;;;;;;5036299;28;20060;-57
2023/10/04 09:35:20;;;;;;;12.60;3.47;;;16.30;99.90;;;;;;5052393;28;20052;-58
2023/10/04 09:37:48;;;;;;;14.13;4.28;;;16.40;99.90;;;;;;5054244;28;20056;-59
2023/10/04 09:40:16;;;;;;;13.77;4.53;;;16.50;99.90;;;;;;5052774;28;20055;-60
2023/10/04 09:42:56;;;;;;;12.45;4.30;;;16.60;99.90;;;;;;5035717;28;20424;-58
2023/10/04 09:45:26;;;;;;;13.90;4.70;;;16.70;99.90;;;;;;5053658;28;20040;-58
2023/10/04 09:47:53;;;;;;;11.48;4.03;;;16.70;99.90;;;;;;5052778;28;20077;-59
2023/10/04 09:50:22;;;;;;;12.85;4.45;;;16.80;99.90;;;;;;5051574;28;20140;-59
2023/10/04 09:52:48;;;;;;;13.02;4.72;;;16.80;99.90;;;;;;5052614;28;20057;-58
2023/10/04 09:55:14;;;;;;;17.98;5.45;;;16.80;99.90;;;;;;5052495;28;20087;-60
2023/10/04 09:57:43;;;;;;;13.18;5.28;;;16.70;99.90;;;;;;5051770;28;20041;-61
2023/10/04 10:00:17;;;;;;;16.92;5.13;;;16.70;99.90;;;;;;5052458;28;20045;-60
2023/10/04 10:02:52;;;;;;;16.70;4.95;;;16.60;99.90;;;;;;5052355;28;20033;-64
2023/10/04 10:05:31;;;;;;;13.18;5.10;;;16.50;99.90;;;;;;5052369;28;20532;-62
2023/10/04 10:08:04;;;;;;;10.52;4.68;;;16.50;99.90;;;;;;5052745;28;20041;-62
2023/10/04 10:10:41;;;;;;;15.65;4.72;;;16.40;99.90;;;;;;5051217;28;20049;-63
2023/10/04 10:13:09;;;;;;;12.43;5.03;;;16.40;99.90;;;;;;5052166;28;20048;-63
2023/10/04 10:15:36;;;;;;;10.82;4.90;;;16.50;99.90;;;;;;5052354;28;20083;-61
2023/10/04 10:18:03;;;;;;;11.15;4.20;;;16.50;99.90;;;;;;5051617;28;20389;-60
2023/10/04 10:20:30;;;;;;;11.15;4.18;;;16.50;99.90;;;;;;5051741;28;20128;-59
2023/10/04 10:22:58;;;;;;;8.55;3.58;;;16.40;99.90;;;;;;5052403;28;20045;-61
2023/10/04 10:25:36;;;;;;;16.52;4.38;;;16.40;99.90;;;;;;5051168;28;20040;-63
2023/10/04 10:28:03;;;;;;;12.35;4.95;;;16.40;99.90;;;;;;5052264;28;20083;-62
2023/10/04 10:30:32;;;;;;;12.77;4.20;;;16.40;99.90;;;;;;5052817;28;20421;-63
2023/10/04 10:32:59;;;;;;;12.68;4.80;;;16.30;99.90;;;;;;5052715;28;20037;-63
2023/10/04 10:35:53;;;;;;;11.70;4.43;;;16.30;99.90;;;;;;5051803;28;20053;-59
2023/10/04 10:38:40;;;;;;;14.05;5.22;;;16.40;99.90;;;;;;5051253;28;20098;-59
2023/10/04 10:41:08;;;;;;;14.52;4.57;;;16.40;99.90;;;;;;5053150;28;20052;-59
2023/10/04 10:43:37;;;;;;;16.70;4.72;;;16.40;99.90;;;;;;5051604;28;20048;-59
2023/10/04 10:46:28;;;;;;;13.05;4.50;;;16.40;99.90;;;;;;5051114;28;20045;-60
2023/10/04 10:49:03;;;;;;;12.48;4.03;;;16.40;99.90;;;;;;5051842;28;20552;-61
2023/10/04 10:51:45;;;;;;;13.55;3.88;;;16.40;99.90;;;;;;5034774;28;20052;-61
2023/10/04 10:54:12;;;;;;;11.55;4.03;;;16.40;99.90;;;;;;5051862;28;20036;-59
2023/10/04 10:56:38;;;;;;;11.68;4.45;;;16.40;99.90;;;;;;5051383;28;20041;-60
2023/10/04 10:59:07;;;;;;;10.02;3.85;;;16.40;99.90;;;;;;5051436;28;20045;-61
2023/10/04 11:01:32;;;;;;;9.88;4.15;;;16.50;99.90;;;;;;5051317;28;20045;-62
2023/10/04 11:04:01;;;;;;;12.18;4.50;;;16.60;99.90;;;;;;5051790;28;20051;-62
2023/10/04 11:06:26;;;;;;;10.20;3.78;;;16.60;99.90;;;;;;5050536;28;20049;-59
2023/10/04 11:08:55;;;;;;;14.00;4.07;;;16.70;99.90;;;;;;5051269;28;20124;-60
2023/10/04 11:11:25;;;;;;;10.13;4.35;;;16.70;99.90;;;;;;5051112;28;20490;-59
2023/10/04 11:13:50;;;;;;;13.80;4.43;;;16.80;99.90;;;;;;5050320;28;20044;-59
2023/10/04 11:16:19;;;;;;;10.90;4.30;;;16.80;99.90;;;;;;5050992;28;20051;-59
2023/10/04 11:18:48;;;;;;;13.13;4.40;;;16.80;99.90;;;;;;5050981;28;20088;-59
2023/10/04 11:21:14;;;;;;;17.38;4.82;;;16.80;99.90;;;;;;5050127;28;20049;-60
2023/10/04 11:23:40;;;;;;;8.60;3.92;;;16.80;99.90;;;;;;5052153;28;20041;-60
2023/10/04 11:26:08;;;;;;;14.00;4.63;;;16.70;99.90;;;;;;5052137;28;20045;-61
2023/10/04 11:28:35;;;;;;;11.75;4.65;;;16.70;99.90;;;;;;5049994;28;20041;-62
2023/10/04 11:31:01;;;;;;;8.40;3.28;;;16.70;99.90;;;;;;5051085;28;20569;-62
2023/10/04 11:33:27;;;;;;;11.20;4.43;;;16.70;99.90;;;;;;5050756;28;20131;-61
2023/10/04 11:35:53;;;;;;;12.73;4.68;;;16.70;99.90;;;;;;5056087;28;20116;-63
2023/10/04 11:38:23;;;;;;;17.40;3.85;;;16.70;99.90;;;;;;5070656;28;20047;-63
2023/10/04 11:40:50;;;;;;;8.82;3.78;;;16.80;99.90;;;;;;5061782;28;20057;-64
2023/10/04 11:43:17;;;;;;;9.43;3.25;;;16.80;99.90;;;;;;5037557;28;20040;-62
2023/10/04 11:45:43;;;;;;;12.02;4.25;;;16.80;99.90;;;;;;5055501;28;20048;-62
2023/10/04 11:48:10;;;;;;;12.52;3.80;;;16.90;99.90;;;;;;5047384;28;20041;-64
2023/10/04 11:50:53;;;;;;;12.48;3.75;;;16.90;99.90;;;;;;5063219;28;20489;-63
2023/10/04 11:53:39;;;;;;;8.27;3.00;;;16.80;99.90;;;;;;5050531;28;20449;-63
2023/10/04 11:56:10;;;;;;;9.10;3.30;;;16.80;99.90;;;;;;5051588;28;20398;-63
2023/10/04 11:59:02;;;;;;;9.30;3.97;;;16.80;99.90;;;;;;5052570;28;20512;-64
2023/10/04 12:01:29;;;;;;;13.38;4.30;;;16.80;99.90;;;;;;5080668;28;20061;-64
2023/10/04 12:03:55;;;;;;;10.75;3.83;;;16.80;99.90;;;;;;5030103;28;20041;-63
2023/10/04 12:06:30;;;;;;;8.98;3.47;;;16.80;99.90;;;;;;5048348;28;20112;-63
2023/10/04 12:08:59;;;;;;;9.15;3.78;;;16.90;99.90;;;;;;5032319;28;20051;-64
2023/10/04 12:11:25;;;;;;;11.95;3.28;;;16.90;99.90;;;;;;5059888;28;20047;-63
2023/10/04 12:13:52;;;;;;;13.88;3.42;;;16.90;99.90;;;;;;5037861;28;20084;-63
2023/10/04 12:16:18;;;;;;;10.60;4.25;;;16.90;99.90;;;;;;5063320;28;20046;-61
2023/10/04 12:18:44;;;;;;;8.55;3.08;;;17.00;99.90;;;;;;5054016;28;20102;-61
2023/10/04 12:21:11;;;;;;;11.05;3.58;;;17.00;99.90;;;;;;5059659;28;20041;-63
2023/10/04 12:23:36;;;;;;;8.27;2.30;;;17.00;99.90;;;;;;5055300;28;20161;-63
2023/10/04 12:26:04;;;;;;;11.57;3.33;;;17.10;99.90;;;;;;5054574;28;20140;-63
2023/10/04 12:28:29;;;;;;;9.45;2.38;;;17.00;99.90;;;;;;5051780;28;20048;-64
2023/10/04 12:31:03;;;;;;;8.23;2.80;;;17.20;99.90;;;;;;5053933;28;20413;-63
2023/10/04 12:33:34;;;;;;;8.85;2.47;;;17.20;99.90;;;;;;5050276;28;20053;-62
2023/10/04 12:36:00;;;;;;;8.88;3.08;;;17.10;99.90;;;;;;5057541;28;20045;-62
2023/10/04 12:38:26;;;;;;;9.23;2.70;;;17.10;99.90;;;;;;5061305;28;20494;-61
2023/10/04 12:40:52;;;;;;;8.50;3.13;;;17.10;99.90;;;;;;5060754;28;20037;-63
2023/10/04 12:43:18;;;;;;;10.55;3.50;;;17.00;99.90;;;;;;5062749;28;20046;-61
2023/10/04 12:45:47;;;;;;;8.27;2.83;;;16.90;99.90;;;;;;5057705;28;20465;-63
2023/10/04 12:48:16;;;;;;;11.43;3.35;;;16.90;99.90;;;;;;5066555;28;20570;-61
2023/10/04 12:50:51;;;;;;;9.13;2.70;;;16.90;99.90;;;;;;5051018;28;20480;-63
2023/10/04 12:53:18;;;;;;;10.65;2.70;;;17.00;99.90;;;;;;5060395;28;20516;-64
2023/10/04 12:55:48;;;;;;;6.53;2.78;;;17.00;99.90;;;;;;5071675;28;20051;-63